Terminal Aerodrome Forecast
Issued by NWS

Home | Current Version | Previous Version | Text Only | Print | Product List | Glossary On
Versions: 1 2 3 4 5 6 7 8 9 10 11 12 13 14 15 16 17
188
FTUS44 KLZK 040539
TAFLLQ
TAF
KLLQ 040539Z 0406/0506 06008KT 5SM -RA BR OVC004
     FM040800 06005KT 2SM BR VCSH OVC004
     FM041200 03004KT 1SM BR VCSH OVC007
     FM042200 35006KT P6SM BKN008 OVC015=

USA.gov is the U.S. government's official web portal to all federal, state and local government web resources and services.